Connemara — FGSR — position and weather

sailwx.info

Track history (hours):
 
Tides and Currents Weather Stations Pressure Air Temp Water Temp Dewpoint Dewpoint Depression Visibility Wind Speed Wind Dir Waves Ship Positions

Connemara

Last reported at 2017-Sep-20 11:08 UTC. Time now 2017-Sep-24 07:02 UTC.
Position N 47°50' W 004°11'.

Length 20 m.

Type: Fishing. MMSI: 227485000.

Date/timePositionNaut miles runAvg speedWind from/ knotsBaromVisibWave heightAir tempDewpointWater temp
2017-Sep-20 11:08N 47°50' W 004°11'0 0.0
2017-Sep-20 10:51N 47°50' W 004°11'  
2017-Sep-18 06:11N 48°01' W 004°45'210.4
2017-Sep-18 06:00N 48°02' W 004°47'5 9.3
2017-Sep-18 05:30N 48°05' W 004°52'4 8.7
2017-Sep-18 05:00N 48°08' W 004°57'5 9.1
2017-Sep-18 04:30N 48°12' W 005°01'5 8.9
2017-Sep-18 03:59N 48°15' W 005°06'14 7.8
2017-Sep-18 02:11N 48°27' W 005°17'2 7.0
2017-Sep-18 01:58N 48°28' W 005°19'  
2017-Sep-14 06:38N 52°04' W 005°52'1 3.9
2017-Sep-14 06:22N 52°05' W 005°52'2 3.6
2017-Sep-14 05:52N 52°07' W 005°53'1 3.6
2017-Sep-14 05:27N 52°08' W 005°53'1 3.4
2017-Sep-14 05:00N 52°09' W 005°54'2 3.1
2017-Sep-14 04:30N 52°11' W 005°55'2 3.2
2017-Sep-14 04:00N 52°12' W 005°56'1 1.4
2017-Sep-14 03:30N 52°13' W 005°56'1 2.2
2017-Sep-14 03:00N 52°14' W 005°57'1 2.7
2017-Sep-14 02:30N 52°13' W 005°59'2 3.7
2017-Sep-14 02:00N 52°11' W 005°59'2 3.9
2017-Sep-14 01:30N 52°09' W 006°00'4 3.9
2017-Sep-14 00:24N 52°05' W 006°03'2 3.7
2017-Sep-13 23:59N 52°04' W 006°03'2 3.2
2017-Sep-13 23:30N 52°03' W 006°02'2 3.1
2017-Sep-13 23:00N 52°01' W 006°01'74 3.0
2017-Sep-12 22:37N 51°20' W 007°41'0 2.9
2017-Sep-12 22:30N 51°21' W 007°41'1 2.4
2017-Sep-12 21:59N 51°22' W 007°43'0 0.0
2017-Sep-12 12:37N 51°21' W 007°43'0 1.3
2017-Sep-12 12:27N 51°21' W 007°42'0 0.1
2017-Sep-12 03:26N 51°22' W 007°43'2 0.1
2017-Sep-11 07:24N 51°23' W 007°45'1 3.0
2017-Sep-11 06:57N 51°25' W 007°46'5 3.2
2017-Sep-11 05:29N 51°27' W 007°52'1 2.4
2017-Sep-11 05:00N 51°28' W 007°52'1 2.8
2017-Sep-11 04:30N 51°28' W 007°50'1 1.6
2017-Sep-11 04:00N 51°28' W 007°49'1 1.0
2017-Sep-11 03:30N 51°27' W 007°48'1 2.5
2017-Sep-11 03:00N 51°26' W 007°47'1 2.6
2017-Sep-11 02:30N 51°25' W 007°46'1 2.5
2017-Sep-11 01:56N 51°24' W 007°45'1 2.5
2017-Sep-11 01:28N 51°23' W 007°44'  
Track history (hours):
 
Tides and Currents Weather Stations Pressure Air Temp Water Temp Dewpoint Dewpoint Depression Visibility Wind Speed Wind Dir Waves Ship Positions

Connemara

Last reported at 2017-Sep-20 11:08 UTC. Time now 2017-Sep-24 07:02 UTC.
Position N 47°50' W 004°11'.

Length 20 m.

Type: Fishing. MMSI: 227485000.

Date/timePositionNaut miles runAvg speedWind from/ knotsBaromVisibWave heightAir tempDewpointWater temp
2017-Sep-20 11:08N 47°50' W 004°11'0 0.0
2017-Sep-20 10:51N 47°50' W 004°11'  
2017-Sep-18 06:11N 48°01' W 004°45'210.4
2017-Sep-18 06:00N 48°02' W 004°47'5 9.3
2017-Sep-18 05:30N 48°05' W 004°52'4 8.7
2017-Sep-18 05:00N 48°08' W 004°57'5 9.1
2017-Sep-18 04:30N 48°12' W 005°01'5 8.9
2017-Sep-18 03:59N 48°15' W 005°06'14 7.8
2017-Sep-18 02:11N 48°27' W 005°17'2 7.0
2017-Sep-18 01:58N 48°28' W 005°19'  
2017-Sep-14 06:38N 52°04' W 005°52'1 3.9
2017-Sep-14 06:22N 52°05' W 005°52'2 3.6
2017-Sep-14 05:52N 52°07' W 005°53'1 3.6
2017-Sep-14 05:27N 52°08' W 005°53'1 3.4
2017-Sep-14 05:00N 52°09' W 005°54'2 3.1
2017-Sep-14 04:30N 52°11' W 005°55'2 3.2
2017-Sep-14 04:00N 52°12' W 005°56'1 1.4
2017-Sep-14 03:30N 52°13' W 005°56'1 2.2
2017-Sep-14 03:00N 52°14' W 005°57'1 2.7
2017-Sep-14 02:30N 52°13' W 005°59'2 3.7
2017-Sep-14 02:00N 52°11' W 005°59'2 3.9
2017-Sep-14 01:30N 52°09' W 006°00'4 3.9
2017-Sep-14 00:24N 52°05' W 006°03'2 3.7
2017-Sep-13 23:59N 52°04' W 006°03'2 3.2
2017-Sep-13 23:30N 52°03' W 006°02'2 3.1
2017-Sep-13 23:00N 52°01' W 006°01'74 3.0
2017-Sep-12 22:37N 51°20' W 007°41'0 2.9
2017-Sep-12 22:30N 51°21' W 007°41'1 2.4
2017-Sep-12 21:59N 51°22' W 007°43'0 0.0
2017-Sep-12 12:37N 51°21' W 007°43'0 1.3
2017-Sep-12 12:27N 51°21' W 007°42'0 0.1
2017-Sep-12 03:26N 51°22' W 007°43'2 0.1
2017-Sep-11 07:24N 51°23' W 007°45'1 3.0
2017-Sep-11 06:57N 51°25' W 007°46'5 3.2
2017-Sep-11 05:29N 51°27' W 007°52'1 2.4
2017-Sep-11 05:00N 51°28' W 007°52'1 2.8
2017-Sep-11 04:30N 51°28' W 007°50'1 1.6
2017-Sep-11 04:00N 51°28' W 007°49'1 1.0
2017-Sep-11 03:30N 51°27' W 007°48'1 2.5
2017-Sep-11 03:00N 51°26' W 007°47'1 2.6
2017-Sep-11 02:30N 51°25' W 007°46'1 2.5
2017-Sep-11 01:56N 51°24' W 007°45'1 2.5
2017-Sep-11 01:28N 51°23' W 007°44'  

Dump ship's entire track history